Kiamika, Canada
Current Conditions -  °F | °C
As of 9:00 PM on Sunday 25 Jan 2015 (Local Time) from CYND Reporting Station
Clear Clear  
Wind Chill: -6°   Ceiling: Unl
Heat Index: -6°   Visibility: 15mi
Dew Point: -13°   Wind: 2mph
Humidity: 71%   Direction: NA
Pressure: 30.12"   Gusts: NA
Location:  46.42°N, 75.37°W
Report Text: CYND 260200Z VRB02KT 15SM SKC M21/M25 A3012 RMK LAST OBS/NEXT 261200 UTC SLP207
Loading
Personal Weather Stations






























Interactive Weather Map New forecast layout! Learn more

10-Day Weather Forecast

Advertisements
Track Severe Weather on mobile